sensor_id;sensor_type;location;lat;lon;timestamp;P1;durP1;ratioP1;P2;durP2;ratioP2
51692;SDS011;37777;53.066;21.638;2023-05-25T00:03:08;15.18;;;8.65;;
51692;SDS011;37777;53.066;21.638;2023-05-25T00:10:11;15.65;;;8.38;;
51692;SDS011;37777;53.066;21.638;2023-05-25T00:17:14;14.50;;;9.13;;
51692;SDS011;37777;53.066;21.638;2023-05-25T00:24:19;12.50;;;8.68;;
51692;SDS011;37777;53.066;21.638;2023-05-25T00:31:21;13.88;;;9.23;;
51692;SDS011;37777;53.066;21.638;2023-05-25T00:38:23;20.20;;;11.82;;
51692;SDS011;37777;53.066;21.638;2023-05-25T00:45:25;13.93;;;10.00;;
51692;SDS011;37777;53.066;21.638;2023-05-25T00:52:27;18.13;;;11.25;;
51692;SDS011;37777;53.066;21.638;2023-05-25T00:59:40;21.83;;;12.07;;
51692;SDS011;37777;53.066;21.638;2023-05-25T01:06:45;15.88;;;10.82;;
51692;SDS011;37777;53.066;21.638;2023-05-25T01:13:51;19.80;;;11.00;;
51692;SDS011;37777;53.066;21.638;2023-05-25T01:28:34;16.75;;;11.27;;
51692;SDS011;37777;53.066;21.638;2023-05-25T01:42:45;40.95;;;12.75;;
51692;SDS011;37777;53.066;21.638;2023-05-25T01:56:56;16.10;;;11.47;;
51692;SDS011;37777;53.066;21.638;2023-05-25T02:04:02;16.90;;;11.32;;
51692;SDS011;37777;53.066;21.638;2023-05-25T02:11:04;18.90;;;12.85;;
51692;SDS011;37777;53.066;21.638;2023-05-25T02:18:06;22.35;;;13.85;;
51692;SDS011;37777;53.066;21.638;2023-05-25T02:25:09;21.23;;;13.80;;
51692;SDS011;37777;53.066;21.638;2023-05-25T02:32:11;20.67;;;12.85;;
51692;SDS011;37777;53.066;21.638;2023-05-25T02:39:13;21.85;;;12.93;;
51692;SDS011;37777;53.066;21.638;2023-05-25T02:46:15;20.48;;;13.80;;
51692;SDS011;37777;53.066;21.638;2023-05-25T02:53:17;24.15;;;15.07;;
51692;SDS011;37777;53.066;21.638;2023-05-25T03:00:19;24.90;;;15.55;;
51692;SDS011;37777;53.066;21.638;2023-05-25T03:07:21;22.85;;;16.45;;
51692;SDS011;37777;53.066;21.638;2023-05-25T03:14:25;28.60;;;16.67;;
51692;SDS011;37777;53.066;21.638;2023-05-25T03:21:28;24.80;;;16.02;;
51692;SDS011;37777;53.066;21.638;2023-05-25T03:28:30;25.65;;;16.67;;
51692;SDS011;37777;53.066;21.638;2023-05-25T03:35:32;23.60;;;16.77;;
51692;SDS011;37777;53.066;21.638;2023-05-25T03:42:34;31.00;;;18.40;;
51692;SDS011;37777;53.066;21.638;2023-05-25T03:49:36;32.70;;;19.67;;
51692;SDS011;37777;53.066;21.638;2023-05-25T03:56:38;31.20;;;19.42;;
51692;SDS011;37777;53.066;21.638;2023-05-25T04:03:40;30.85;;;17.92;;
51692;SDS011;37777;53.066;21.638;2023-05-25T04:10:43;28.63;;;18.77;;
51692;SDS011;37777;53.066;21.638;2023-05-25T04:17:46;30.25;;;19.73;;
51692;SDS011;37777;53.066;21.638;2023-05-25T04:24:48;29.95;;;18.90;;
51692;SDS011;37777;53.066;21.638;2023-05-25T04:31:50;28.45;;;18.13;;
51692;SDS011;37777;53.066;21.638;2023-05-25T04:38:55;32.35;;;18.23;;
51692;SDS011;37777;53.066;21.638;2023-05-25T04:45:57;34.42;;;18.35;;
51692;SDS011;37777;53.066;21.638;2023-05-25T04:53:00;29.90;;;18.90;;
51692;SDS011;37777;53.066;21.638;2023-05-25T05:00:02;36.40;;;19.45;;
51692;SDS011;37777;53.066;21.638;2023-05-25T05:07:06;30.05;;;17.75;;
51692;SDS011;37777;53.066;21.638;2023-05-25T05:14:09;34.13;;;18.65;;
51692;SDS011;37777;53.066;21.638;2023-05-25T05:21:11;31.60;;;18.95;;
51692;SDS011;37777;53.066;21.638;2023-05-25T05:28:13;32.85;;;18.75;;
51692;SDS011;37777;53.066;21.638;2023-05-25T05:35:15;29.95;;;18.92;;
51692;SDS011;37777;53.066;21.638;2023-05-25T05:42:17;29.58;;;18.60;;
51692;SDS011;37777;53.066;21.638;2023-05-25T05:49:19;30.95;;;17.60;;
51692;SDS011;37777;53.066;21.638;2023-05-25T05:56:21;31.27;;;19.77;;
51692;SDS011;37777;53.066;21.638;2023-05-25T06:03:24;36.05;;;20.27;;
51692;SDS011;37777;53.066;21.638;2023-05-25T06:10:28;32.13;;;19.17;;
51692;SDS011;37777;53.066;21.638;2023-05-25T06:17:31;29.00;;;18.65;;
51692;SDS011;37777;53.066;21.638;2023-05-25T06:24:33;33.25;;;18.25;;
51692;SDS011;37777;53.066;21.638;2023-05-25T06:31:35;31.33;;;18.02;;
51692;SDS011;37777;53.066;21.638;2023-05-25T06:38:37;30.55;;;18.15;;
51692;SDS011;37777;53.066;21.638;2023-05-25T06:45:39;29.25;;;18.25;;
51692;SDS011;37777;53.066;21.638;2023-05-25T06:52:41;31.20;;;17.60;;
51692;SDS011;37777;53.066;21.638;2023-05-25T06:59:43;28.25;;;18.00;;
51692;SDS011;37777;53.066;21.638;2023-05-25T07:06:45;27.35;;;17.30;;
51692;SDS011;37777;53.066;21.638;2023-05-25T07:13:48;28.98;;;17.17;;
51692;SDS011;37777;53.066;21.638;2023-05-25T07:20:51;31.98;;;18.08;;
51692;SDS011;37777;53.066;21.638;2023-05-25T07:27:54;29.48;;;17.90;;
51692;SDS011;37777;53.066;21.638;2023-05-25T07:34:58;26.83;;;17.15;;
51692;SDS011;37777;53.066;21.638;2023-05-25T07:42:00;27.38;;;18.02;;
51692;SDS011;37777;53.066;21.638;2023-05-25T07:49:02;24.77;;;16.58;;
51692;SDS011;37777;53.066;21.638;2023-05-25T07:56:05;26.33;;;16.67;;
51692;SDS011;37777;53.066;21.638;2023-05-25T08:03:10;37.45;;;16.95;;
51692;SDS011;37777;53.066;21.638;2023-05-25T08:10:13;26.63;;;16.15;;
51692;SDS011;37777;53.066;21.638;2023-05-25T08:17:15;23.38;;;15.88;;
51692;SDS011;37777;53.066;21.638;2023-05-25T08:24:17;29.35;;;16.83;;
51692;SDS011;37777;53.066;21.638;2023-05-25T08:31:20;26.73;;;17.15;;
51692;SDS011;37777;53.066;21.638;2023-05-25T08:38:23;28.23;;;15.38;;
51692;SDS011;37777;53.066;21.638;2023-05-25T08:45:26;24.00;;;14.07;;
51692;SDS011;37777;53.066;21.638;2023-05-25T08:52:33;25.77;;;13.60;;
51692;SDS011;37777;53.066;21.638;2023-05-25T09:06:48;22.27;;;15.35;;
51692;SDS011;37777;53.066;21.638;2023-05-25T09:14:10;23.75;;;14.35;;
51692;SDS011;37777;53.066;21.638;2023-05-25T09:21:12;23.08;;;14.90;;
51692;SDS011;37777;53.066;21.638;2023-05-25T09:28:14;26.13;;;13.23;;
51692;SDS011;37777;53.066;21.638;2023-05-25T09:35:27;28.77;;;17.40;;
51692;SDS011;37777;53.066;21.638;2023-05-25T09:42:30;26.60;;;14.68;;
51692;SDS011;37777;53.066;21.638;2023-05-25T09:49:32;24.48;;;14.57;;
51692;SDS011;37777;53.066;21.638;2023-05-25T09:56:34;29.98;;;16.13;;
51692;SDS011;37777;53.066;21.638;2023-05-25T10:03:44;29.13;;;16.27;;
51692;SDS011;37777;53.066;21.638;2023-05-25T10:11:03;25.90;;;15.70;;
51692;SDS011;37777;53.066;21.638;2023-05-25T10:18:06;24.48;;;15.27;;
51692;SDS011;37777;53.066;21.638;2023-05-25T10:25:21;25.30;;;15.73;;
51692;SDS011;37777;53.066;21.638;2023-05-25T10:32:26;26.65;;;15.48;;
51692;SDS011;37777;53.066;21.638;2023-05-25T10:39:30;24.88;;;16.15;;
51692;SDS011;37777;53.066;21.638;2023-05-25T10:46:33;25.58;;;15.27;;
51692;SDS011;37777;53.066;21.638;2023-05-25T10:53:37;21.10;;;15.13;;
51692;SDS011;37777;53.066;21.638;2023-05-25T11:00:40;19.08;;;11.93;;
51692;SDS011;37777;53.066;21.638;2023-05-25T11:08:18;19.48;;;12.15;;
51692;SDS011;37777;53.066;21.638;2023-05-25T11:15:24;16.67;;;12.20;;
51692;SDS011;37777;53.066;21.638;2023-05-25T11:22:31;18.85;;;11.95;;
51692;SDS011;37777;53.066;21.638;2023-05-25T11:29:36;19.80;;;12.00;;
51692;SDS011;37777;53.066;21.638;2023-05-25T11:36:40;16.52;;;11.82;;
51692;SDS011;37777;53.066;21.638;2023-05-25T11:43:49;18.55;;;13.52;;
51692;SDS011;37777;53.066;21.638;2023-05-25T11:51:04;16.77;;;11.18;;
51692;SDS011;37777;53.066;21.638;2023-05-25T11:58:07;15.63;;;11.05;;
51692;SDS011;37777;53.066;21.638;2023-05-25T12:05:09;14.02;;;10.45;;
51692;SDS011;37777;53.066;21.638;2023-05-25T12:12:12;13.50;;;10.73;;
51692;SDS011;37777;53.066;21.638;2023-05-25T12:19:14;15.90;;;10.30;;
51692;SDS011;37777;53.066;21.638;2023-05-25T12:26:17;22.33;;;11.65;;
51692;SDS011;37777;53.066;21.638;2023-05-25T12:33:20;14.63;;;10.15;;
51692;SDS011;37777;53.066;21.638;2023-05-25T12:40:22;14.90;;;10.35;;
51692;SDS011;37777;53.066;21.638;2023-05-25T12:47:25;15.18;;;9.27;;
51692;SDS011;37777;53.066;21.638;2023-05-25T12:54:41;15.75;;;10.13;;
51692;SDS011;37777;53.066;21.638;2023-05-25T13:01:45;18.05;;;9.18;;
51692;SDS011;37777;53.066;21.638;2023-05-25T13:08:47;10.88;;;7.45;;
51692;SDS011;37777;53.066;21.638;2023-05-25T13:15:50;9.68;;;7.05;;
51692;SDS011;37777;53.066;21.638;2023-05-25T13:22:53;12.40;;;8.95;;
51692;SDS011;37777;53.066;21.638;2023-05-25T13:29:58;15.27;;;9.05;;
51692;SDS011;37777;53.066;21.638;2023-05-25T13:37:00;13.57;;;8.20;;
51692;SDS011;37777;53.066;21.638;2023-05-25T13:44:02;14.15;;;8.70;;
51692;SDS011;37777;53.066;21.638;2023-05-25T13:51:04;13.32;;;8.30;;
51692;SDS011;37777;53.066;21.638;2023-05-25T13:58:07;10.50;;;7.88;;
51692;SDS011;37777;53.066;21.638;2023-05-25T14:05:10;13.48;;;8.02;;
51692;SDS011;37777;53.066;21.638;2023-05-25T14:12:12;10.60;;;7.72;;
51692;SDS011;37777;53.066;21.638;2023-05-25T14:19:14;9.77;;;7.47;;
51692;SDS011;37777;53.066;21.638;2023-05-25T14:26:17;12.55;;;8.13;;
51692;SDS011;37777;53.066;21.638;2023-05-25T14:33:20;12.05;;;9.18;;
51692;SDS011;37777;53.066;21.638;2023-05-25T14:40:22;12.23;;;8.98;;
51692;SDS011;37777;53.066;21.638;2023-05-25T14:47:24;14.90;;;9.18;;
51692;SDS011;37777;53.066;21.638;2023-05-25T14:54:26;14.15;;;8.75;;
51692;SDS011;37777;53.066;21.638;2023-05-25T15:01:28;13.57;;;8.88;;
51692;SDS011;37777;53.066;21.638;2023-05-25T15:08:30;13.13;;;8.95;;
51692;SDS011;37777;53.066;21.638;2023-05-25T15:15:32;17.92;;;9.45;;
51692;SDS011;37777;53.066;21.638;2023-05-25T15:22:35;11.38;;;7.78;;
51692;SDS011;37777;53.066;21.638;2023-05-25T15:29:37;10.88;;;8.00;;
51692;SDS011;37777;53.066;21.638;2023-05-25T15:36:39;12.88;;;8.07;;
51692;SDS011;37777;53.066;21.638;2023-05-25T15:43:41;15.75;;;9.32;;
51692;SDS011;37777;53.066;21.638;2023-05-25T15:50:51;12.80;;;9.90;;
51692;SDS011;37777;53.066;21.638;2023-05-25T15:57:53;14.57;;;10.07;;
51692;SDS011;37777;53.066;21.638;2023-05-25T16:04:55;13.95;;;9.38;;
51692;SDS011;37777;53.066;21.638;2023-05-25T16:11:57;10.73;;;8.75;;
51692;SDS011;37777;53.066;21.638;2023-05-25T16:18:59;10.10;;;7.75;;
51692;SDS011;37777;53.066;21.638;2023-05-25T16:26:03;10.93;;;8.10;;
51692;SDS011;37777;53.066;21.638;2023-05-25T16:33:06;11.32;;;7.57;;
51692;SDS011;37777;53.066;21.638;2023-05-25T16:40:09;11.23;;;8.07;;
51692;SDS011;37777;53.066;21.638;2023-05-25T16:47:11;11.57;;;8.60;;
51692;SDS011;37777;53.066;21.638;2023-05-25T16:54:13;11.27;;;8.40;;
51692;SDS011;37777;53.066;21.638;2023-05-25T17:01:16;31.67;;;17.92;;
51692;SDS011;37777;53.066;21.638;2023-05-25T17:08:19;22.40;;;13.70;;
51692;SDS011;37777;53.066;21.638;2023-05-25T17:15:21;22.73;;;13.30;;
51692;SDS011;37777;53.066;21.638;2023-05-25T17:22:23;18.23;;;11.45;;
51692;SDS011;37777;53.066;21.638;2023-05-25T17:29:25;15.43;;;11.07;;
51692;SDS011;37777;53.066;21.638;2023-05-25T17:36:27;15.70;;;9.65;;
51692;SDS011;37777;53.066;21.638;2023-05-25T17:43:29;12.90;;;9.57;;
51692;SDS011;37777;53.066;21.638;2023-05-25T17:50:34;16.23;;;11.48;;
51692;SDS011;37777;53.066;21.638;2023-05-25T17:57:36;14.13;;;9.48;;
51692;SDS011;37777;53.066;21.638;2023-05-25T18:04:39;13.32;;;10.07;;
51692;SDS011;37777;53.066;21.638;2023-05-25T18:11:41;15.55;;;10.50;;
51692;SDS011;37777;53.066;21.638;2023-05-25T18:18:43;16.80;;;10.60;;
51692;SDS011;37777;53.066;21.638;2023-05-25T18:25:45;15.57;;;10.95;;
51692;SDS011;37777;53.066;21.638;2023-05-25T18:32:47;13.80;;;11.52;;
51692;SDS011;37777;53.066;21.638;2023-05-25T18:39:49;17.10;;;10.88;;
51692;SDS011;37777;53.066;21.638;2023-05-25T18:46:52;12.88;;;10.38;;
51692;SDS011;37777;53.066;21.638;2023-05-25T18:53:56;12.52;;;9.32;;
51692;SDS011;37777;53.066;21.638;2023-05-25T19:00:59;17.48;;;10.48;;
51692;SDS011;37777;53.066;21.638;2023-05-25T19:08:01;13.70;;;10.80;;
51692;SDS011;37777;53.066;21.638;2023-05-25T19:15:03;19.10;;;13.20;;
51692;SDS011;37777;53.066;21.638;2023-05-25T19:22:08;19.40;;;13.65;;
51692;SDS011;37777;53.066;21.638;2023-05-25T19:29:10;41.60;;;28.20;;
51692;SDS011;37777;53.066;21.638;2023-05-25T19:36:13;64.53;;;43.35;;
51692;SDS011;37777;53.066;21.638;2023-05-25T19:43:15;29.67;;;19.63;;
51692;SDS011;37777;53.066;21.638;2023-05-25T19:50:17;11.77;;;9.40;;
51692;SDS011;37777;53.066;21.638;2023-05-25T19:57:19;14.13;;;9.35;;
51692;SDS011;37777;53.066;21.638;2023-05-25T20:04:22;12.32;;;8.50;;
51692;SDS011;37777;53.066;21.638;2023-05-25T20:11:25;16.23;;;11.40;;
51692;SDS011;37777;53.066;21.638;2023-05-25T20:18:28;11.43;;;8.57;;
51692;SDS011;37777;53.066;21.638;2023-05-25T20:25:30;10.55;;;7.43;;
51692;SDS011;37777;53.066;21.638;2023-05-25T20:32:32;9.27;;;6.57;;
51692;SDS011;37777;53.066;21.638;2023-05-25T20:39:34;8.88;;;6.57;;
51692;SDS011;37777;53.066;21.638;2023-05-25T20:46:36;8.27;;;5.85;;
51692;SDS011;37777;53.066;21.638;2023-05-25T20:53:39;8.20;;;6.18;;
51692;SDS011;37777;53.066;21.638;2023-05-25T21:00:41;8.40;;;5.78;;
51692;SDS011;37777;53.066;21.638;2023-05-25T21:07:44;6.82;;;5.15;;
51692;SDS011;37777;53.066;21.638;2023-05-25T21:14:47;10.32;;;5.63;;
51692;SDS011;37777;53.066;21.638;2023-05-25T21:21:48;6.63;;;4.80;;
51692;SDS011;37777;53.066;21.638;2023-05-25T21:28:51;5.88;;;4.70;;
51692;SDS011;37777;53.066;21.638;2023-05-25T21:35:53;6.57;;;4.75;;
51692;SDS011;37777;53.066;21.638;2023-05-25T21:42:56;13.13;;;4.90;;
51692;SDS011;37777;53.066;21.638;2023-05-25T21:49:58;7.75;;;5.32;;
51692;SDS011;37777;53.066;21.638;2023-05-25T21:57:00;9.07;;;4.63;;
51692;SDS011;37777;53.066;21.638;2023-05-25T22:04:03;10.80;;;4.80;;
51692;SDS011;37777;53.066;21.638;2023-05-25T22:11:05;8.20;;;5.35;;
51692;SDS011;37777;53.066;21.638;2023-05-25T22:18:07;9.20;;;4.65;;
51692;SDS011;37777;53.066;21.638;2023-05-25T22:25:10;6.65;;;4.50;;
51692;SDS011;37777;53.066;21.638;2023-05-25T22:32:12;5.45;;;4.60;;
51692;SDS011;37777;53.066;21.638;2023-05-25T22:39:14;8.48;;;4.10;;
51692;SDS011;37777;53.066;21.638;2023-05-25T22:46:16;8.75;;;4.93;;
51692;SDS011;37777;53.066;21.638;2023-05-25T22:53:18;6.10;;;4.50;;
51692;SDS011;37777;53.066;21.638;2023-05-25T23:00:21;6.90;;;4.78;;
51692;SDS011;37777;53.066;21.638;2023-05-25T23:07:23;9.13;;;4.47;;
51692;SDS011;37777;53.066;21.638;2023-05-25T23:14:24;7.57;;;3.88;;
51692;SDS011;37777;53.066;21.638;2023-05-25T23:21:28;5.18;;;4.50;;
51692;SDS011;37777;53.066;21.638;2023-05-25T23:28:30;8.25;;;4.43;;
51692;SDS011;37777;53.066;21.638;2023-05-25T23:35:32;7.43;;;4.82;;
51692;SDS011;37777;53.066;21.638;2023-05-25T23:42:38;8.40;;;4.60;;
51692;SDS011;37777;53.066;21.638;2023-05-25T23:49:43;10.63;;;4.70;;
51692;SDS011;37777;53.066;21.638;2023-05-25T23:56:45;7.80;;;4.60;;
